sensor_id;sensor_type;location;lat;lon;timestamp;P1;durP1;ratioP1;P2;durP2;ratioP2
11960;SDS011;6040;49.358;11.140;2024-03-25T00:02:24;6.30;;;3.70;;
11960;SDS011;6040;49.358;11.140;2024-03-25T00:04:50;4.95;;;3.35;;
11960;SDS011;6040;49.358;11.140;2024-03-25T00:07:16;4.60;;;3.40;;
11960;SDS011;6040;49.358;11.140;2024-03-25T00:09:43;5.97;;;4.07;;
11960;SDS011;6040;49.358;11.140;2024-03-25T00:12:09;4.47;;;3.40;;
11960;SDS011;6040;49.358;11.140;2024-03-25T00:14:36;6.18;;;3.58;;
11960;SDS011;6040;49.358;11.140;2024-03-25T00:17:02;5.35;;;3.60;;
11960;SDS011;6040;49.358;11.140;2024-03-25T00:19:30;5.47;;;3.85;;
11960;SDS011;6040;49.358;11.140;2024-03-25T00:21:57;5.13;;;3.55;;
11960;SDS011;6040;49.358;11.140;2024-03-25T00:24:24;6.15;;;3.83;;
11960;SDS011;6040;49.358;11.140;2024-03-25T00:26:51;5.55;;;3.78;;
11960;SDS011;6040;49.358;11.140;2024-03-25T00:29:18;5.68;;;3.45;;
11960;SDS011;6040;49.358;11.140;2024-03-25T00:31:44;4.83;;;3.43;;
11960;SDS011;6040;49.358;11.140;2024-03-25T00:34:11;5.88;;;3.75;;
11960;SDS011;6040;49.358;11.140;2024-03-25T00:36:39;6.43;;;3.70;;
11960;SDS011;6040;49.358;11.140;2024-03-25T00:39:06;5.15;;;3.80;;
11960;SDS011;6040;49.358;11.140;2024-03-25T00:41:32;5.63;;;3.75;;
11960;SDS011;6040;49.358;11.140;2024-03-25T00:43:59;5.47;;;3.63;;
11960;SDS011;6040;49.358;11.140;2024-03-25T00:46:25;5.05;;;3.50;;
11960;SDS011;6040;49.358;11.140;2024-03-25T00:48:52;5.80;;;3.95;;
11960;SDS011;6040;49.358;11.140;2024-03-25T00:51:18;6.23;;;3.80;;
11960;SDS011;6040;49.358;11.140;2024-03-25T00:53:46;5.55;;;3.65;;
11960;SDS011;6040;49.358;11.140;2024-03-25T00:56:12;3.97;;;3.50;;
11960;SDS011;6040;49.358;11.140;2024-03-25T00:58:39;4.97;;;3.90;;
11960;SDS011;6040;49.358;11.140;2024-03-25T01:01:05;7.10;;;3.78;;
11960;SDS011;6040;49.358;11.140;2024-03-25T01:03:31;5.45;;;3.90;;
11960;SDS011;6040;49.358;11.140;2024-03-25T01:05:57;4.47;;;3.63;;
11960;SDS011;6040;49.358;11.140;2024-03-25T01:08:24;5.40;;;3.93;;
11960;SDS011;6040;49.358;11.140;2024-03-25T01:10:51;5.05;;;3.78;;
11960;SDS011;6040;49.358;11.140;2024-03-25T01:13:18;5.32;;;4.00;;
11960;SDS011;6040;49.358;11.140;2024-03-25T01:15:43;6.50;;;4.07;;
11960;SDS011;6040;49.358;11.140;2024-03-25T01:18:10;5.90;;;3.83;;
11960;SDS011;6040;49.358;11.140;2024-03-25T01:20:36;6.18;;;4.18;;
11960;SDS011;6040;49.358;11.140;2024-03-25T01:23:03;8.43;;;4.03;;
11960;SDS011;6040;49.358;11.140;2024-03-25T01:25:29;4.32;;;3.92;;
11960;SDS011;6040;49.358;11.140;2024-03-25T01:27:58;4.88;;;3.90;;
11960;SDS011;6040;49.358;11.140;2024-03-25T01:30:25;5.45;;;3.60;;
11960;SDS011;6040;49.358;11.140;2024-03-25T01:33:00;5.90;;;3.80;;
11960;SDS011;6040;49.358;11.140;2024-03-25T01:35:26;5.55;;;3.70;;
11960;SDS011;6040;49.358;11.140;2024-03-25T01:37:53;6.00;;;3.65;;
11960;SDS011;6040;49.358;11.140;2024-03-25T01:40:19;5.67;;;3.37;;
11960;SDS011;6040;49.358;11.140;2024-03-25T01:42:54;6.00;;;3.83;;
11960;SDS011;6040;49.358;11.140;2024-03-25T01:45:22;5.65;;;3.90;;
11960;SDS011;6040;49.358;11.140;2024-03-25T01:47:49;5.00;;;3.55;;
11960;SDS011;6040;49.358;11.140;2024-03-25T01:50:15;5.18;;;4.00;;
11960;SDS011;6040;49.358;11.140;2024-03-25T01:52:42;6.35;;;3.80;;
11960;SDS011;6040;49.358;11.140;2024-03-25T01:55:08;4.70;;;3.42;;
11960;SDS011;6040;49.358;11.140;2024-03-25T01:57:41;5.50;;;3.90;;
11960;SDS011;6040;49.358;11.140;2024-03-25T02:00:08;4.85;;;3.75;;
11960;SDS011;6040;49.358;11.140;2024-03-25T02:02:37;5.35;;;3.50;;
11960;SDS011;6040;49.358;11.140;2024-03-25T02:05:06;5.28;;;3.72;;
11960;SDS011;6040;49.358;11.140;2024-03-25T02:07:34;6.93;;;3.88;;
11960;SDS011;6040;49.358;11.140;2024-03-25T02:10:01;6.05;;;3.80;;
11960;SDS011;6040;49.358;11.140;2024-03-25T02:12:29;5.60;;;3.67;;
11960;SDS011;6040;49.358;11.140;2024-03-25T02:14:56;6.20;;;3.90;;
11960;SDS011;6040;49.358;11.140;2024-03-25T02:17:23;7.18;;;3.80;;
11960;SDS011;6040;49.358;11.140;2024-03-25T02:19:50;5.72;;;3.80;;
11960;SDS011;6040;49.358;11.140;2024-03-25T02:22:18;4.70;;;3.50;;
11960;SDS011;6040;49.358;11.140;2024-03-25T02:24:44;4.85;;;3.55;;
11960;SDS011;6040;49.358;11.140;2024-03-25T02:27:13;6.65;;;3.80;;
11960;SDS011;6040;49.358;11.140;2024-03-25T02:29:39;6.25;;;3.83;;
11960;SDS011;6040;49.358;11.140;2024-03-25T02:32:07;5.40;;;3.80;;
11960;SDS011;6040;49.358;11.140;2024-03-25T02:34:35;6.97;;;3.88;;
11960;SDS011;6040;49.358;11.140;2024-03-25T02:37:02;5.15;;;3.83;;
11960;SDS011;6040;49.358;11.140;2024-03-25T02:39:29;5.78;;;3.83;;
11960;SDS011;6040;49.358;11.140;2024-03-25T02:41:56;6.13;;;4.20;;
11960;SDS011;6040;49.358;11.140;2024-03-25T02:44:23;6.43;;;3.90;;
11960;SDS011;6040;49.358;11.140;2024-03-25T02:46:50;5.55;;;3.85;;
11960;SDS011;6040;49.358;11.140;2024-03-25T02:49:17;7.45;;;3.70;;
11960;SDS011;6040;49.358;11.140;2024-03-25T02:51:44;4.97;;;4.05;;
11960;SDS011;6040;49.358;11.140;2024-03-25T02:54:09;6.57;;;4.03;;
11960;SDS011;6040;49.358;11.140;2024-03-25T02:56:36;5.95;;;4.20;;
11960;SDS011;6040;49.358;11.140;2024-03-25T02:59:02;5.03;;;3.97;;
11960;SDS011;6040;49.358;11.140;2024-03-25T03:01:30;8.13;;;4.30;;
11960;SDS011;6040;49.358;11.140;2024-03-25T03:03:56;6.65;;;4.20;;
11960;SDS011;6040;49.358;11.140;2024-03-25T03:06:23;5.63;;;4.10;;
11960;SDS011;6040;49.358;11.140;2024-03-25T03:08:49;6.30;;;4.45;;
11960;SDS011;6040;49.358;11.140;2024-03-25T03:11:16;5.80;;;4.18;;
11960;SDS011;6040;49.358;11.140;2024-03-25T03:13:41;7.13;;;4.07;;
11960;SDS011;6040;49.358;11.140;2024-03-25T03:16:08;6.63;;;4.50;;
11960;SDS011;6040;49.358;11.140;2024-03-25T03:18:35;5.80;;;4.27;;
11960;SDS011;6040;49.358;11.140;2024-03-25T03:21:03;9.23;;;4.70;;
11960;SDS011;6040;49.358;11.140;2024-03-25T03:23:29;6.93;;;4.38;;
11960;SDS011;6040;49.358;11.140;2024-03-25T03:25:56;5.73;;;4.23;;
11960;SDS011;6040;49.358;11.140;2024-03-25T03:28:24;7.68;;;4.68;;
11960;SDS011;6040;49.358;11.140;2024-03-25T03:30:53;8.15;;;4.93;;
11960;SDS011;6040;49.358;11.140;2024-03-25T03:33:19;6.30;;;4.38;;
11960;SDS011;6040;49.358;11.140;2024-03-25T03:35:47;6.70;;;4.53;;
11960;SDS011;6040;49.358;11.140;2024-03-25T03:38:14;6.55;;;4.47;;
11960;SDS011;6040;49.358;11.140;2024-03-25T03:40:44;6.95;;;4.65;;
11960;SDS011;6040;49.358;11.140;2024-03-25T03:43:20;7.93;;;4.47;;
11960;SDS011;6040;49.358;11.140;2024-03-25T03:45:47;6.47;;;4.60;;
11960;SDS011;6040;49.358;11.140;2024-03-25T03:48:13;5.93;;;4.47;;
11960;SDS011;6040;49.358;11.140;2024-03-25T03:50:40;7.10;;;4.70;;
11960;SDS011;6040;49.358;11.140;2024-03-25T03:53:08;7.20;;;5.20;;
11960;SDS011;6040;49.358;11.140;2024-03-25T03:55:35;7.78;;;5.00;;
11960;SDS011;6040;49.358;11.140;2024-03-25T03:58:00;7.73;;;4.60;;
11960;SDS011;6040;49.358;11.140;2024-03-25T04:00:27;6.07;;;4.70;;
11960;SDS011;6040;49.358;11.140;2024-03-25T04:02:53;9.23;;;4.90;;
11960;SDS011;6040;49.358;11.140;2024-03-25T04:05:20;6.68;;;4.97;;
11960;SDS011;6040;49.358;11.140;2024-03-25T04:07:46;6.88;;;4.88;;
11960;SDS011;6040;49.358;11.140;2024-03-25T04:10:14;5.73;;;4.50;;
11960;SDS011;6040;49.358;11.140;2024-03-25T04:12:40;5.30;;;4.70;;
11960;SDS011;6040;49.358;11.140;2024-03-25T04:15:07;6.17;;;4.80;;
11960;SDS011;6040;49.358;11.140;2024-03-25T04:17:33;8.05;;;4.82;;
11960;SDS011;6040;49.358;11.140;2024-03-25T04:20:00;7.83;;;4.93;;
11960;SDS011;6040;49.358;11.140;2024-03-25T04:22:26;6.28;;;4.50;;
11960;SDS011;6040;49.358;11.140;2024-03-25T04:24:52;6.65;;;4.70;;
11960;SDS011;6040;49.358;11.140;2024-03-25T04:27:20;7.57;;;4.77;;
11960;SDS011;6040;49.358;11.140;2024-03-25T04:29:49;6.83;;;4.60;;
11960;SDS011;6040;49.358;11.140;2024-03-25T04:32:15;6.00;;;4.65;;
11960;SDS011;6040;49.358;11.140;2024-03-25T04:34:42;6.65;;;4.57;;
11960;SDS011;6040;49.358;11.140;2024-03-25T04:37:09;7.88;;;4.90;;
11960;SDS011;6040;49.358;11.140;2024-03-25T04:39:35;7.90;;;4.90;;
11960;SDS011;6040;49.358;11.140;2024-03-25T04:42:00;6.10;;;4.70;;
11960;SDS011;6040;49.358;11.140;2024-03-25T04:44:28;6.07;;;4.70;;
11960;SDS011;6040;49.358;11.140;2024-03-25T04:46:54;7.27;;;4.93;;
11960;SDS011;6040;49.358;11.140;2024-03-25T04:49:20;6.20;;;4.72;;
11960;SDS011;6040;49.358;11.140;2024-03-25T04:51:46;7.65;;;4.50;;
11960;SDS011;6040;49.358;11.140;2024-03-25T04:54:12;6.30;;;4.50;;
11960;SDS011;6040;49.358;11.140;2024-03-25T04:56:37;7.55;;;5.03;;
11960;SDS011;6040;49.358;11.140;2024-03-25T04:59:03;6.32;;;4.70;;
11960;SDS011;6040;49.358;11.140;2024-03-25T05:01:30;9.38;;;5.10;;
11960;SDS011;6040;49.358;11.140;2024-03-25T05:03:56;8.13;;;5.03;;
11960;SDS011;6040;49.358;11.140;2024-03-25T05:06:22;7.70;;;4.93;;
11960;SDS011;6040;49.358;11.140;2024-03-25T05:08:48;6.30;;;4.90;;
11960;SDS011;6040;49.358;11.140;2024-03-25T05:11:14;7.78;;;4.82;;
11960;SDS011;6040;49.358;11.140;2024-03-25T05:13:40;7.47;;;5.00;;
11960;SDS011;6040;49.358;11.140;2024-03-25T05:16:06;7.53;;;5.30;;
11960;SDS011;6040;49.358;11.140;2024-03-25T05:18:33;9.60;;;4.97;;
11960;SDS011;6040;49.358;11.140;2024-03-25T05:20:59;6.60;;;4.87;;
11960;SDS011;6040;49.358;11.140;2024-03-25T05:23:25;8.25;;;5.30;;
11960;SDS011;6040;49.358;11.140;2024-03-25T05:25:51;9.13;;;5.28;;
11960;SDS011;6040;49.358;11.140;2024-03-25T05:28:16;6.32;;;4.93;;
11960;SDS011;6040;49.358;11.140;2024-03-25T05:30:42;6.87;;;5.27;;
11960;SDS011;6040;49.358;11.140;2024-03-25T05:33:08;9.73;;;5.10;;
11960;SDS011;6040;49.358;11.140;2024-03-25T05:35:36;6.90;;;5.10;;
11960;SDS011;6040;49.358;11.140;2024-03-25T05:38:01;7.35;;;4.72;;
11960;SDS011;6040;49.358;11.140;2024-03-25T05:40:28;8.30;;;5.50;;
11960;SDS011;6040;49.358;11.140;2024-03-25T05:42:54;5.90;;;5.00;;
11960;SDS011;6040;49.358;11.140;2024-03-25T05:45:20;9.70;;;5.43;;
11960;SDS011;6040;49.358;11.140;2024-03-25T05:47:45;6.38;;;5.03;;
11960;SDS011;6040;49.358;11.140;2024-03-25T05:50:11;7.22;;;5.32;;
11960;SDS011;6040;49.358;11.140;2024-03-25T05:52:39;8.10;;;5.47;;
11960;SDS011;6040;49.358;11.140;2024-03-25T05:55:05;7.20;;;5.38;;
11960;SDS011;6040;49.358;11.140;2024-03-25T05:57:31;9.38;;;5.47;;
11960;SDS011;6040;49.358;11.140;2024-03-25T05:59:57;8.63;;;5.75;;
11960;SDS011;6040;49.358;11.140;2024-03-25T06:02:22;9.18;;;5.43;;
11960;SDS011;6040;49.358;11.140;2024-03-25T06:04:48;7.10;;;5.27;;
11960;SDS011;6040;49.358;11.140;2024-03-25T06:07:14;7.78;;;5.20;;
11960;SDS011;6040;49.358;11.140;2024-03-25T06:09:41;6.57;;;5.20;;
11960;SDS011;6040;49.358;11.140;2024-03-25T06:12:07;9.35;;;4.57;;
11960;SDS011;6040;49.358;11.140;2024-03-25T06:14:33;5.80;;;4.28;;
11960;SDS011;6040;49.358;11.140;2024-03-25T06:16:59;4.50;;;3.80;;
11960;SDS011;6040;49.358;11.140;2024-03-25T06:19:25;6.18;;;4.00;;
11960;SDS011;6040;49.358;11.140;2024-03-25T06:21:51;5.97;;;3.70;;
11960;SDS011;6040;49.358;11.140;2024-03-25T06:24:17;5.55;;;3.40;;
11960;SDS011;6040;49.358;11.140;2024-03-25T06:26:44;5.68;;;3.58;;
11960;SDS011;6040;49.358;11.140;2024-03-25T06:29:10;3.78;;;3.13;;
11960;SDS011;6040;49.358;11.140;2024-03-25T06:31:36;5.65;;;3.40;;
11960;SDS011;6040;49.358;11.140;2024-03-25T06:34:21;6.57;;;3.65;;
11960;SDS011;6040;49.358;11.140;2024-03-25T06:36:47;6.05;;;3.20;;
11960;SDS011;6040;49.358;11.140;2024-03-25T06:39:13;3.50;;;3.15;;
11960;SDS011;6040;49.358;11.140;2024-03-25T06:41:40;3.83;;;3.15;;
11960;SDS011;6040;49.358;11.140;2024-03-25T06:44:08;4.32;;;3.15;;
11960;SDS011;6040;49.358;11.140;2024-03-25T06:46:34;5.35;;;3.08;;
11960;SDS011;6040;49.358;11.140;2024-03-25T06:49:00;5.75;;;3.17;;
11960;SDS011;6040;49.358;11.140;2024-03-25T06:51:26;3.85;;;3.00;;
11960;SDS011;6040;49.358;11.140;2024-03-25T06:53:52;5.55;;;3.13;;
11960;SDS011;6040;49.358;11.140;2024-03-25T06:56:18;3.67;;;2.92;;
11960;SDS011;6040;49.358;11.140;2024-03-25T06:58:43;5.60;;;3.08;;
11960;SDS011;6040;49.358;11.140;2024-03-25T07:01:11;4.90;;;3.00;;
11960;SDS011;6040;49.358;11.140;2024-03-25T07:03:37;4.60;;;2.92;;
11960;SDS011;6040;49.358;11.140;2024-03-25T07:06:03;6.07;;;3.20;;
11960;SDS011;6040;49.358;11.140;2024-03-25T07:08:29;4.13;;;3.00;;
11960;SDS011;6040;49.358;11.140;2024-03-25T07:10:56;4.00;;;2.75;;
11960;SDS011;6040;49.358;11.140;2024-03-25T07:13:22;4.55;;;2.70;;
11960;SDS011;6040;49.358;11.140;2024-03-25T07:15:48;4.03;;;2.58;;
11960;SDS011;6040;49.358;11.140;2024-03-25T07:18:16;4.05;;;2.80;;
11960;SDS011;6040;49.358;11.140;2024-03-25T07:20:42;5.32;;;2.80;;
11960;SDS011;6040;49.358;11.140;2024-03-25T07:23:08;4.68;;;2.60;;
11960;SDS011;6040;49.358;11.140;2024-03-25T07:25:35;4.53;;;2.65;;
11960;SDS011;6040;49.358;11.140;2024-03-25T07:28:01;5.68;;;2.78;;
11960;SDS011;6040;49.358;11.140;2024-03-25T07:30:27;4.00;;;2.70;;
11960;SDS011;6040;49.358;11.140;2024-03-25T07:32:53;3.28;;;2.22;;
11960;SDS011;6040;49.358;11.140;2024-03-25T07:35:21;4.80;;;2.60;;
11960;SDS011;6040;49.358;11.140;2024-03-25T07:37:47;3.50;;;2.33;;
11960;SDS011;6040;49.358;11.140;2024-03-25T07:40:13;3.73;;;2.40;;
11960;SDS011;6040;49.358;11.140;2024-03-25T07:42:40;4.68;;;2.30;;
11960;SDS011;6040;49.358;11.140;2024-03-25T07:45:06;3.60;;;2.10;;
11960;SDS011;6040;49.358;11.140;2024-03-25T07:47:32;5.35;;;2.40;;
11960;SDS011;6040;49.358;11.140;2024-03-25T07:49:59;3.90;;;2.05;;
11960;SDS011;6040;49.358;11.140;2024-03-25T07:55:48;4.07;;;2.00;;
11960;SDS011;6040;49.358;11.140;2024-03-25T07:58:15;4.00;;;2.20;;
11960;SDS011;6040;49.358;11.140;2024-03-25T08:00:41;4.90;;;2.10;;
11960;SDS011;6040;49.358;11.140;2024-03-25T08:03:07;5.28;;;2.20;;
11960;SDS011;6040;49.358;11.140;2024-03-25T08:05:33;4.38;;;2.17;;
11960;SDS011;6040;49.358;11.140;2024-03-25T08:07:59;3.70;;;2.20;;
11960;SDS011;6040;49.358;11.140;2024-03-25T08:10:25;4.50;;;2.17;;
11960;SDS011;6040;49.358;11.140;2024-03-25T08:12:52;4.10;;;2.07;;
11960;SDS011;6040;49.358;11.140;2024-03-25T08:15:18;3.35;;;2.00;;
11960;SDS011;6040;49.358;11.140;2024-03-25T08:17:44;4.15;;;2.00;;
11960;SDS011;6040;49.358;11.140;2024-03-25T08:20:10;4.15;;;1.90;;
11960;SDS011;6040;49.358;11.140;2024-03-25T08:22:36;3.65;;;2.03;;
11960;SDS011;6040;49.358;11.140;2024-03-25T08:25:02;4.15;;;2.03;;
11960;SDS011;6040;49.358;11.140;2024-03-25T08:27:29;4.47;;;2.00;;
11960;SDS011;6040;49.358;11.140;2024-03-25T08:29:56;4.20;;;2.23;;
11960;SDS011;6040;49.358;11.140;2024-03-25T08:32:22;5.00;;;2.08;;
11960;SDS011;6040;49.358;11.140;2024-03-25T08:34:47;3.20;;;2.00;;
11960;SDS011;6040;49.358;11.140;2024-03-25T08:37:13;3.10;;;1.92;;
11960;SDS011;6040;49.358;11.140;2024-03-25T08:39:39;4.60;;;2.00;;
11960;SDS011;6040;49.358;11.140;2024-03-25T08:42:05;4.47;;;2.00;;
11960;SDS011;6040;49.358;11.140;2024-03-25T08:44:31;7.15;;;2.40;;
11960;SDS011;6040;49.358;11.140;2024-03-25T08:46:58;3.58;;;1.95;;
11960;SDS011;6040;49.358;11.140;2024-03-25T08:49:24;4.32;;;2.10;;
11960;SDS011;6040;49.358;11.140;2024-03-25T08:51:50;4.97;;;2.10;;
11960;SDS011;6040;49.358;11.140;2024-03-25T08:54:16;4.45;;;2.15;;
11960;SDS011;6040;49.358;11.140;2024-03-25T08:56:42;3.95;;;2.10;;
11960;SDS011;6040;49.358;11.140;2024-03-25T08:59:08;3.90;;;2.00;;
11960;SDS011;6040;49.358;11.140;2024-03-25T09:01:33;3.17;;;2.03;;
11960;SDS011;6040;49.358;11.140;2024-03-25T09:04:01;4.37;;;2.00;;
11960;SDS011;6040;49.358;11.140;2024-03-25T09:06:27;3.40;;;1.70;;
11960;SDS011;6040;49.358;11.140;2024-03-25T09:08:55;3.42;;;1.60;;
11960;SDS011;6040;49.358;11.140;2024-03-25T09:11:40;2.65;;;1.60;;
11960;SDS011;6040;49.358;11.140;2024-03-25T09:14:06;3.50;;;1.80;;
11960;SDS011;6040;49.358;11.140;2024-03-25T09:16:38;3.42;;;1.70;;
11960;SDS011;6040;49.358;11.140;2024-03-25T09:19:06;3.50;;;1.90;;
11960;SDS011;6040;49.358;11.140;2024-03-25T09:21:32;3.35;;;1.80;;
11960;SDS011;6040;49.358;11.140;2024-03-25T09:23:57;2.92;;;1.67;;
11960;SDS011;6040;49.358;11.140;2024-03-25T09:26:23;3.95;;;1.90;;
11960;SDS011;6040;49.358;11.140;2024-03-25T09:28:49;3.72;;;1.83;;
11960;SDS011;6040;49.358;11.140;2024-03-25T09:31:15;3.20;;;1.80;;
11960;SDS011;6040;49.358;11.140;2024-03-25T09:33:41;2.92;;;1.80;;
11960;SDS011;6040;49.358;11.140;2024-03-25T09:36:08;2.72;;;1.67;;
11960;SDS011;6040;49.358;11.140;2024-03-25T09:38:34;4.20;;;1.90;;
11960;SDS011;6040;49.358;11.140;2024-03-25T09:41:00;3.60;;;1.80;;
11960;SDS011;6040;49.358;11.140;2024-03-25T09:43:27;3.20;;;1.60;;
11960;SDS011;6040;49.358;11.140;2024-03-25T09:46:00;3.38;;;1.80;;
11960;SDS011;6040;49.358;11.140;2024-03-25T09:48:26;3.80;;;2.00;;
11960;SDS011;6040;49.358;11.140;2024-03-25T09:50:52;3.13;;;2.00;;
11960;SDS011;6040;49.358;11.140;2024-03-25T09:53:20;4.15;;;2.10;;
11960;SDS011;6040;49.358;11.140;2024-03-25T09:55:46;3.47;;;1.90;;
11960;SDS011;6040;49.358;11.140;2024-03-25T09:58:13;2.95;;;1.83;;
11960;SDS011;6040;49.358;11.140;2024-03-25T10:00:40;2.88;;;1.80;;
11960;SDS011;6040;49.358;11.140;2024-03-25T10:03:06;3.35;;;1.80;;
11960;SDS011;6040;49.358;11.140;2024-03-25T10:05:32;3.63;;;1.92;;
11960;SDS011;6040;49.358;11.140;2024-03-25T10:07:58;4.22;;;1.83;;
11960;SDS011;6040;49.358;11.140;2024-03-25T10:10:26;2.60;;;1.90;;
11960;SDS011;6040;49.358;11.140;2024-03-25T10:12:54;3.25;;;1.90;;
11960;SDS011;6040;49.358;11.140;2024-03-25T10:15:20;4.10;;;2.00;;
11960;SDS011;6040;49.358;11.140;2024-03-25T10:17:48;3.13;;;1.90;;
11960;SDS011;6040;49.358;11.140;2024-03-25T10:20:15;2.90;;;1.85;;
11960;SDS011;6040;49.358;11.140;2024-03-25T10:22:41;3.93;;;1.93;;
11960;SDS011;6040;49.358;11.140;2024-03-25T10:25:07;4.40;;;2.17;;
11960;SDS011;6040;49.358;11.140;2024-03-25T10:27:52;3.13;;;2.00;;
11960;SDS011;6040;49.358;11.140;2024-03-25T10:30:19;3.47;;;1.98;;
11960;SDS011;6040;49.358;11.140;2024-03-25T10:32:45;4.63;;;2.08;;
11960;SDS011;6040;49.358;11.140;2024-03-25T10:35:11;3.33;;;2.00;;
11960;SDS011;6040;49.358;11.140;2024-03-25T10:37:38;3.33;;;2.00;;
11960;SDS011;6040;49.358;11.140;2024-03-25T10:40:05;3.42;;;1.83;;
11960;SDS011;6040;49.358;11.140;2024-03-25T10:42:36;3.23;;;1.90;;
11960;SDS011;6040;49.358;11.140;2024-03-25T10:45:06;3.03;;;2.03;;
11960;SDS011;6040;49.358;11.140;2024-03-25T10:47:34;2.50;;;1.73;;
11960;SDS011;6040;49.358;11.140;2024-03-25T10:50:01;3.10;;;1.60;;
11960;SDS011;6040;49.358;11.140;2024-03-25T10:52:34;2.50;;;1.50;;
11960;SDS011;6040;49.358;11.140;2024-03-25T10:55:01;2.53;;;1.80;;
11960;SDS011;6040;49.358;11.140;2024-03-25T10:57:28;3.00;;;1.70;;
11960;SDS011;6040;49.358;11.140;2024-03-25T10:59:55;2.30;;;1.63;;
11960;SDS011;6040;49.358;11.140;2024-03-25T11:02:23;3.40;;;1.70;;
11960;SDS011;6040;49.358;11.140;2024-03-25T11:04:50;4.00;;;1.80;;
11960;SDS011;6040;49.358;11.140;2024-03-25T11:07:16;1.70;;;1.60;;
11960;SDS011;6040;49.358;11.140;2024-03-25T11:09:42;2.53;;;1.80;;
11960;SDS011;6040;49.358;11.140;2024-03-25T11:12:09;2.63;;;1.80;;
11960;SDS011;6040;49.358;11.140;2024-03-25T11:14:36;2.53;;;1.73;;
11960;SDS011;6040;49.358;11.140;2024-03-25T11:17:02;2.53;;;1.70;;
11960;SDS011;6040;49.358;11.140;2024-03-25T11:19:29;3.83;;;2.00;;
11960;SDS011;6040;49.358;11.140;2024-03-25T11:22:06;2.10;;;1.80;;
11960;SDS011;6040;49.358;11.140;2024-03-25T11:24:34;3.27;;;2.00;;
11960;SDS011;6040;49.358;11.140;2024-03-25T11:27:00;2.60;;;1.90;;
11960;SDS011;6040;49.358;11.140;2024-03-25T11:29:26;3.70;;;1.70;;
11960;SDS011;6040;49.358;11.140;2024-03-25T11:31:52;3.23;;;2.00;;
11960;SDS011;6040;49.358;11.140;2024-03-25T11:34:19;3.87;;;2.20;;
11960;SDS011;6040;49.358;11.140;2024-03-25T11:36:46;2.13;;;1.90;;
11960;SDS011;6040;49.358;11.140;2024-03-25T11:39:12;2.83;;;1.80;;
11960;SDS011;6040;49.358;11.140;2024-03-25T11:41:39;1.97;;;1.77;;
11960;SDS011;6040;49.358;11.140;2024-03-25T11:44:05;2.20;;;1.70;;
11960;SDS011;6040;49.358;11.140;2024-03-25T11:46:33;1.80;;;1.70;;
11960;SDS011;6040;49.358;11.140;2024-03-25T11:49:01;3.33;;;2.30;;
11960;SDS011;6040;49.358;11.140;2024-03-25T11:51:27;3.27;;;1.80;;
11960;SDS011;6040;49.358;11.140;2024-03-25T11:53:55;1.80;;;1.70;;
11960;SDS011;6040;49.358;11.140;2024-03-25T11:56:21;4.97;;;2.13;;
11960;SDS011;6040;49.358;11.140;2024-03-25T11:58:47;2.60;;;1.97;;
11960;SDS011;6040;49.358;11.140;2024-03-25T12:01:13;4.13;;;2.30;;
11960;SDS011;6040;49.358;11.140;2024-03-25T12:03:39;3.30;;;2.03;;
11960;SDS011;6040;49.358;11.140;2024-03-25T12:06:05;2.27;;;1.80;;
11960;SDS011;6040;49.358;11.140;2024-03-25T12:08:31;2.23;;;1.77;;
11960;SDS011;6040;49.358;11.140;2024-03-25T12:11:00;2.23;;;1.87;;
11960;SDS011;6040;49.358;11.140;2024-03-25T12:13:45;2.63;;;2.00;;
11960;SDS011;6040;49.358;11.140;2024-03-25T12:16:11;3.47;;;1.90;;
11960;SDS011;6040;49.358;11.140;2024-03-25T12:18:39;3.73;;;1.97;;
11960;SDS011;6040;49.358;11.140;2024-03-25T12:21:06;2.07;;;1.80;;
11960;SDS011;6040;49.358;11.140;2024-03-25T12:23:33;3.43;;;1.90;;
11960;SDS011;6040;49.358;11.140;2024-03-25T12:26:00;2.00;;;1.70;;
11960;SDS011;6040;49.358;11.140;2024-03-25T12:28:26;2.23;;;1.83;;
11960;SDS011;6040;49.358;11.140;2024-03-25T12:30:52;3.23;;;1.80;;
11960;SDS011;6040;49.358;11.140;2024-03-25T12:33:19;1.97;;;1.67;;
11960;SDS011;6040;49.358;11.140;2024-03-25T12:35:45;3.50;;;2.00;;
11960;SDS011;6040;49.358;11.140;2024-03-25T12:38:21;2.10;;;1.90;;
11960;SDS011;6040;49.358;11.140;2024-03-25T12:40:50;2.97;;;1.97;;
11960;SDS011;6040;49.358;11.140;2024-03-25T12:43:17;3.23;;;1.80;;
11960;SDS011;6040;49.358;11.140;2024-03-25T12:45:43;2.80;;;2.00;;
11960;SDS011;6040;49.358;11.140;2024-03-25T12:48:09;2.03;;;1.80;;
11960;SDS011;6040;49.358;11.140;2024-03-25T12:50:35;2.03;;;1.83;;
11960;SDS011;6040;49.358;11.140;2024-03-25T12:53:01;3.13;;;2.10;;
11960;SDS011;6040;49.358;11.140;2024-03-25T12:55:28;3.03;;;1.77;;
11960;SDS011;6040;49.358;11.140;2024-03-25T12:57:54;2.10;;;1.90;;
11960;SDS011;6040;49.358;11.140;2024-03-25T13:00:21;3.13;;;2.27;;
11960;SDS011;6040;49.358;11.140;2024-03-25T13:02:47;2.87;;;1.90;;
11960;SDS011;6040;49.358;11.140;2024-03-25T13:05:13;2.90;;;2.10;;
11960;SDS011;6040;49.358;11.140;2024-03-25T13:07:39;5.53;;;2.10;;
11960;SDS011;6040;49.358;11.140;2024-03-25T13:10:05;3.17;;;2.10;;
11960;SDS011;6040;49.358;11.140;2024-03-25T13:12:32;2.30;;;2.10;;
11960;SDS011;6040;49.358;11.140;2024-03-25T13:14:58;5.37;;;2.10;;
11960;SDS011;6040;49.358;11.140;2024-03-25T13:17:26;3.03;;;2.10;;
11960;SDS011;6040;49.358;11.140;2024-03-25T13:19:52;2.47;;;1.63;;
11960;SDS011;6040;49.358;11.140;2024-03-25T13:22:18;2.90;;;1.80;;
11960;SDS011;6040;49.358;11.140;2024-03-25T13:24:44;2.73;;;2.10;;
11960;SDS011;6040;49.358;11.140;2024-03-25T13:27:10;1.73;;;1.63;;
11960;SDS011;6040;49.358;11.140;2024-03-25T13:29:36;2.97;;;1.80;;
11960;SDS011;6040;49.358;11.140;2024-03-25T13:32:03;2.50;;;2.00;;
11960;SDS011;6040;49.358;11.140;2024-03-25T13:34:30;2.90;;;2.00;;
11960;SDS011;6040;49.358;11.140;2024-03-25T13:36:57;2.67;;;1.93;;
11960;SDS011;6040;49.358;11.140;2024-03-25T13:39:23;2.33;;;2.13;;
11960;SDS011;6040;49.358;11.140;2024-03-25T13:41:49;2.47;;;1.97;;
11960;SDS011;6040;49.358;11.140;2024-03-25T13:44:15;3.60;;;1.97;;
11960;SDS011;6040;49.358;11.140;2024-03-25T13:46:41;3.83;;;2.00;;
11960;SDS011;6040;49.358;11.140;2024-03-25T13:49:07;3.27;;;1.80;;
11960;SDS011;6040;49.358;11.140;2024-03-25T13:51:35;2.50;;;1.93;;
11960;SDS011;6040;49.358;11.140;2024-03-25T13:54:01;2.83;;;2.10;;
11960;SDS011;6040;49.358;11.140;2024-03-25T13:56:27;2.10;;;1.90;;
11960;SDS011;6040;49.358;11.140;2024-03-25T13:58:54;1.90;;;1.63;;
11960;SDS011;6040;49.358;11.140;2024-03-25T14:01:20;4.17;;;2.00;;
11960;SDS011;6040;49.358;11.140;2024-03-25T14:03:46;3.37;;;1.80;;
11960;SDS011;6040;49.358;11.140;2024-03-25T14:06:12;3.47;;;2.00;;
11960;SDS011;6040;49.358;11.140;2024-03-25T14:08:40;3.10;;;1.70;;
11960;SDS011;6040;49.358;11.140;2024-03-25T14:11:06;3.90;;;1.93;;
11960;SDS011;6040;49.358;11.140;2024-03-25T14:13:32;1.90;;;1.67;;
11960;SDS011;6040;49.358;11.140;2024-03-25T14:15:58;3.43;;;1.80;;
11960;SDS011;6040;49.358;11.140;2024-03-25T14:18:24;5.03;;;1.90;;
11960;SDS011;6040;49.358;11.140;2024-03-25T14:20:51;2.83;;;1.50;;
11960;SDS011;6040;49.358;11.140;2024-03-25T14:23:17;1.90;;;1.33;;
11960;SDS011;6040;49.358;11.140;2024-03-25T14:25:44;3.50;;;1.77;;
11960;SDS011;6040;49.358;11.140;2024-03-25T14:28:11;2.00;;;1.73;;
11960;SDS011;6040;49.358;11.140;2024-03-25T14:30:37;2.03;;;1.70;;
11960;SDS011;6040;49.358;11.140;2024-03-25T14:33:03;3.47;;;1.60;;
11960;SDS011;6040;49.358;11.140;2024-03-25T14:35:29;1.83;;;1.70;;
11960;SDS011;6040;49.358;11.140;2024-03-25T14:37:56;4.00;;;1.70;;
11960;SDS011;6040;49.358;11.140;2024-03-25T14:40:22;2.20;;;1.70;;
11960;SDS011;6040;49.358;11.140;2024-03-25T14:42:49;1.83;;;1.50;;
11960;SDS011;6040;49.358;11.140;2024-03-25T14:45:16;2.03;;;1.50;;
11960;SDS011;6040;49.358;11.140;2024-03-25T14:47:42;2.53;;;1.70;;
11960;SDS011;6040;49.358;11.140;2024-03-25T14:50:08;2.13;;;1.60;;